Time;durP1;ratioP1;P1;durP2;ratioP2;P2;SDS_P1;SDS_P2;PMS_P1;PMS_P2;Temp;Humidity;BMP_temperature;BMP_pressure;BME280_temperature;BME280_humidity;BME280_pressure;Samples;Min_cycle;Max_cycle;Signal;HPM_P1;HPM_P2
2023/06/17 05:15:17;;;;;;;;;;;;;;;23.00;40.82;96853.25;4256382;27;10310;-65
2023/06/17 05:17:20;;;;;;;;;;;;;;;23.30;40.85;96854.25;4231421;27;6858;-65
2023/06/17 05:19:23;;;;;;;;;;;;;;;23.50;40.58;96851.53;4235414;27;5615;-66
2023/06/17 05:21:26;;;;;;;;;;;;;;;23.69;40.33;96859.88;4226618;28;5865;-66
2023/06/17 05:23:29;;;;;;;;;;;;;;;23.84;39.78;96859.81;4233181;27;5951;-65
2023/06/17 05:25:32;;;;;;;;;;;;;;;23.96;39.75;96854.91;4240026;27;5726;-65
2023/06/17 05:27:38;;;;;;;;;;;;;;;24.10;39.16;96852.38;4230548;28;5624;-65
2023/06/17 05:29:41;;;;;;;;;;;;;;;24.23;39.02;96854.47;4230345;28;5814;-65
2023/06/17 05:31:45;;;;;;;;;;;;;;;24.33;38.80;96854.44;4233897;27;5703;-65
2023/06/17 05:33:49;;;;;;;;;;;;;;;24.46;38.61;96853.00;4231680;27;5699;-66
2023/06/17 05:35:52;;;;;;;;;;;;;;;24.54;38.45;96857.03;4230157;28;5626;-66
2023/06/17 05:37:54;;;;;;;;;;;;;;;24.63;38.20;96850.75;4238912;27;5731;-66
2023/06/17 05:39:57;;;;;;;;;;;;;;;24.72;38.46;96856.38;4236571;27;5617;-67
2023/06/17 05:42:00;;;;;;;;;;;;;;;24.78;38.02;96866.03;4231497;27;5624;-66
2023/06/17 05:44:03;;;;;;;;;;;;;;;24.83;37.97;96860.59;4233788;27;5616;-66
2023/06/17 05:46:06;;;;;;;;;;;;;;;24.89;37.60;96866.75;4232450;27;7090;-66
2023/06/17 05:48:12;;;;;;;;;;;;;;;24.93;37.87;96868.63;4230233;28;5699;-66
2023/06/17 05:50:17;;;;;;;;;;;;;;;24.97;37.89;96863.47;4237603;27;5653;-67
2023/06/17 05:52:20;;;;;;;;;;;;;;;25.02;37.51;96862.63;4239814;27;5728;-66
2023/06/17 05:54:23;;;;;;;;;;;;;;;25.07;37.40;96865.31;4245592;27;5699;-66
2023/06/17 05:56:27;;;;;;;;;;;;;;;25.13;37.24;96869.56;4231862;27;6552;-66
2023/06/17 05:58:31;;;;;;;;;;;;;;;25.17;37.20;96866.03;4236102;27;5802;-66
2023/06/17 06:00:36;;;;;;;;;;;;;;;25.22;37.32;96863.25;4242086;27;5696;-66
2023/06/17 06:02:39;;;;;;;;;;;;;;;25.28;37.22;96866.75;4238516;27;5594;-67
2023/06/17 06:04:43;;;;;;;;;;;;;;;25.33;37.07;96863.16;4246222;27;5728;-67
2023/06/17 06:06:46;;;;;;;;;;;;;;;25.35;36.69;96864.47;4246645;27;5597;-66
2023/06/17 06:08:49;;;;;;;;;;;;;;;25.37;36.95;96867.75;4238529;27;6457;-66
2023/06/17 06:10:51;;;;;;;;;;;;;;;25.43;36.75;96871.19;4232612;27;5600;-67
2023/06/17 06:12:55;;;;;;;;;;;;;;;25.47;36.32;96875.72;4229408;28;5707;-67
2023/06/17 06:14:58;;;;;;;;;;;;;;;25.55;36.32;96879.72;4233386;27;5541;-67
2023/06/17 06:17:01;;;;;;;;;;;;;;;25.61;36.51;96881.28;4225274;28;5814;-66
2023/06/17 06:19:04;;;;;;;;;;;;;;;25.66;36.37;96869.59;4219278;28;5695;-66
2023/06/17 06:21:08;;;;;;;;;;;;;;;25.72;36.17;96885.53;4218329;28;5616;-66
2023/06/17 06:23:11;;;;;;;;;;;;;;;25.76;35.72;96878.44;4226524;28;5793;-66
2023/06/17 06:25:14;;;;;;;;;;;;;;;25.81;36.25;96882.97;4225340;28;5621;-65
2023/06/17 06:27:17;;;;;;;;;;;;;;;25.85;36.11;96884.03;4226050;28;5680;-66
2023/06/17 06:29:20;;;;;;;;;;;;;;;25.87;35.59;96897.28;4226650;28;5692;-67
2023/06/17 06:31:23;;;;;;;;;;;;;;;25.87;35.95;96900.78;4228216;28;5724;-66
2023/06/17 06:33:26;;;;;;;;;;;;;;;25.87;35.89;96898.09;4235083;28;5711;-67
2023/06/17 06:35:29;;;;;;;;;;;;;;;25.90;35.45;96894.78;4234586;28;5616;-67
2023/06/17 06:37:34;;;;;;;;;;;;;;;25.93;35.65;96896.91;4226696;28;5613;-67
2023/06/17 06:39:36;;;;;;;;;;;;;;;25.96;35.52;96900.97;4222742;28;5500;-66
2023/06/17 06:41:39;;;;;;;;;;;;;;;25.99;35.45;96905.81;4231881;28;5629;-67
2023/06/17 06:43:42;;;;;;;;;;;;;;;26.00;35.75;96905.50;4230116;28;6222;-67
2023/06/17 06:45:45;;;;;;;;;;;;;;;25.98;35.62;96902.28;4222175;28;5664;-65
2023/06/17 06:47:52;;;;;;;;;;;;;;;25.98;35.56;96899.56;4234647;28;5684;-66
2023/06/17 06:50:00;;;;;;;;;;;;;;;26.00;35.80;96912.81;4234749;28;5684;-67
2023/06/17 06:52:03;;;;;;;;;;;;;;;25.99;35.51;96909.31;4219009;28;5809;-67
2023/06/17 06:54:08;;;;;;;;;;;;;;;25.99;35.56;96906.59;4217767;28;5624;-66
2023/06/17 06:56:10;;;;;;;;;;;;;;;26.00;35.92;96902.78;4225813;28;5706;-66
2023/06/17 06:58:13;;;;;;;;;;;;;;;26.01;36.20;96909.03;4219613;28;5993;-65
2023/06/17 07:00:17;;;;;;;;;;;;;;;26.01;36.21;96906.31;4226188;28;5822;-66
2023/06/17 07:02:21;;;;;;;;;;;;;;;26.03;36.10;96902.22;4234316;28;5687;-66
2023/06/17 07:04:25;;;;;;;;;;;;;;;26.04;35.95;96901.13;4234315;28;5679;-66
2023/06/17 07:06:28;;;;;;;;;;;;;;;26.04;36.55;96903.81;4234173;28;5605;-65
2023/06/17 07:08:32;;;;;;;;;;;;;;;26.05;36.59;96907.38;4230836;28;5667;-66
2023/06/17 07:10:39;;;;;;;;;;;;;;;26.02;36.43;96906.03;4221083;28;5661;-65
2023/06/17 07:12:44;;;;;;;;;;;;;;;25.98;36.50;96899.56;4220786;28;6209;-66
2023/06/17 07:14:47;;;;;;;;;;;;;;;25.90;36.71;96904.81;4217548;28;5623;-65
2023/06/17 07:16:50;;;;;;;;;;;;;;;25.84;36.71;96906.78;4217562;28;5945;-66
2023/06/17 07:18:53;;;;;;;;;;;;;;;25.80;36.82;96901.13;4223072;28;7777;-65
2023/06/17 07:20:56;;;;;;;;;;;;;;;25.78;37.06;96910.63;4219652;28;5624;-66
2023/06/17 07:22:59;;;;;;;;;;;;;;;25.77;37.03;96906.31;4225818;28;5564;-66
2023/06/17 07:25:02;;;;;;;;;;;;;;;25.76;37.19;96907.41;4216747;28;5131;-66
2023/06/17 07:27:07;;;;;;;;;;;;;;;25.77;37.26;96909.03;4232512;28;5110;-67
2023/06/17 07:29:10;;;;;;;;;;;;;;;25.75;37.14;96911.22;4217907;28;5616;-67
2023/06/17 07:31:13;;;;;;;;;;;;;;;25.75;36.99;96908.50;4225007;28;5601;-66
2023/06/17 07:33:16;;;;;;;;;;;;;;;25.72;37.08;96896.38;4217265;28;5890;-66
2023/06/17 07:35:19;;;;;;;;;;;;;;;25.71;36.94;96899.34;4224995;28;5701;-66
2023/06/17 07:37:23;;;;;;;;;;;;;;;25.68;37.05;96899.88;4217518;28;5525;-66
2023/06/17 07:39:26;;;;;;;;;;;;;;;25.64;37.21;96898.84;4219137;28;5623;-66
2023/06/17 07:41:28;;;;;;;;;;;;;;;25.60;37.03;96903.25;4222987;28;5699;-66
2023/06/17 07:43:33;;;;;;;;;;;;;;;25.57;36.86;96898.38;4225168;28;5751;-66
2023/06/17 07:45:35;;;;;;;;;;;;;;;25.57;36.82;96901.88;4220267;28;5585;-66
2023/06/17 07:47:38;;;;;;;;;;;;;;;25.55;36.79;96899.47;4225383;28;5630;-66
2023/06/17 07:49:42;;;;;;;;;;;;;;;25.53;37.10;96898.97;4220992;28;6512;-66
2023/06/17 07:51:45;;;;;;;;;;;;;;;25.54;37.04;96905.19;4225295;28;5608;-66
2023/06/17 07:53:47;;;;;;;;;;;;;;;25.53;37.17;96901.66;4230330;28;6375;-66
2023/06/17 07:55:51;;;;;;;;;;;;;;;25.50;37.12;96902.25;4228026;28;5699;-66
2023/06/17 07:57:54;;;;;;;;;;;;;;;25.49;37.09;96902.53;4216911;28;6957;-66
2023/06/17 07:59:59;;;;;;;;;;;;;;;25.45;37.31;96907.69;4231602;28;5601;-66
2023/06/17 08:02:02;;;;;;;;;;;;;;;25.42;37.64;96902.84;4233574;28;6658;-66
2023/06/17 08:04:05;;;;;;;;;;;;;;;25.45;37.63;96896.06;4225685;28;5204;-66
2023/06/17 08:06:08;;;;;;;;;;;;;;;25.47;37.63;96897.38;4224001;28;5600;-66
2023/06/17 08:08:11;;;;;;;;;;;;;;;25.48;38.05;96892.78;4216728;28;5632;-66
2023/06/17 08:10:14;;;;;;;;;;;;;;;25.49;38.05;96895.22;4216633;28;5628;-65
2023/06/17 08:12:16;;;;;;;;;;;;;;;25.48;38.04;96896.31;4224346;28;5732;-66
2023/06/17 08:14:20;;;;;;;;;;;;;;;25.48;37.82;96899.03;4216058;28;6488;-65
2023/06/17 08:16:24;;;;;;;;;;;;;;;25.51;38.21;96884.91;4224514;28;5751;-66
2023/06/17 08:18:27;;;;;;;;;;;;;;;25.54;37.96;96894.34;4216401;28;6275;-65
2023/06/17 08:20:30;;;;;;;;;;;;;;;25.54;38.25;96888.94;4216792;28;6023;-66
2023/06/17 08:22:33;;;;;;;;;;;;;;;25.56;38.05;96881.31;4228381;28;5589;-67
2023/06/17 08:24:36;;;;;;;;;;;;;;;25.55;37.81;96885.13;4232718;28;5597;-65
2023/06/17 08:26:39;;;;;;;;;;;;;;;25.54;38.42;96881.63;4226403;28;5676;-65
2023/06/17 08:28:42;;;;;;;;;;;;;;;25.55;38.05;96883.22;4220606;28;6341;-66
2023/06/17 08:30:45;;;;;;;;;;;;;;;25.57;38.60;96879.44;4229995;28;5739;-67
2023/06/17 08:32:50;;;;;;;;;;;;;;;25.54;38.33;96876.19;4225831;28;5692;-65
2023/06/17 08:34:53;;;;;;;;;;;;;;;25.52;38.19;96870.28;4215286;28;5809;-67
2023/06/17 08:36:56;;;;;;;;;;;;;;;25.54;38.82;96876.19;4227949;28;5609;-66
2023/06/17 08:38:59;;;;;;;;;;;;;;;25.58;38.79;96873.72;4223845;28;5741;-67
2023/06/17 08:41:02;;;;;;;;;;;;;;;25.62;38.43;96868.56;4224935;28;6310;-67
2023/06/17 08:43:05;;;;;;;;;;;;;;;25.63;38.61;96870.16;4218156;28;5868;-67
2023/06/17 08:45:09;;;;;;;;;;;;;;;25.64;38.72;96872.59;4222527;28;5721;-65
2023/06/17 08:47:15;;;;;;;;;;;;;;;25.65;38.78;96873.38;4229112;28;5638;-67
2023/06/17 08:49:20;;;;;;;;;;;;;;;25.64;38.42;96867.16;4225976;28;5609;-66
2023/06/17 08:51:23;;;;;;;;;;;;;;;25.63;38.54;96870.16;4227371;28;6393;-67
2023/06/17 08:53:27;;;;;;;;;;;;;;;25.59;38.73;96866.41;4230137;28;5648;-66
2023/06/17 08:55:30;;;;;;;;;;;;;;;25.58;38.50;96870.22;4231171;28;5704;-65
2023/06/17 08:57:33;;;;;;;;;;;;;;;25.57;39.01;96866.69;4230753;28;5597;-67
2023/06/17 08:59:35;;;;;;;;;;;;;;;25.58;38.82;96867.50;4230474;28;5613;-66
2023/06/17 09:01:40;;;;;;;;;;;;;;;25.58;38.99;96862.09;4224987;28;5593;-67
2023/06/17 09:03:44;;;;;;;;;;;;;;;25.59;39.04;96871.81;4223691;28;5594;-67
2023/06/17 09:05:52;;;;;;;;;;;;;;;25.60;39.17;96866.16;4231759;28;5593;-67
2023/06/17 09:07:55;;;;;;;;;;;;;;;25.60;39.01;96865.34;4218133;28;5691;-67
2023/06/17 09:10:04;;;;;;;;;;;;;;;25.59;39.14;96864.50;4221973;28;5594;-66
2023/06/17 09:12:08;;;;;;;;;;;;;;;25.61;38.80;96872.38;4229292;28;5581;-67
2023/06/17 09:14:11;;;;;;;;;;;;;;;25.62;39.14;96865.84;4231123;28;5704;-67
2023/06/17 09:16:14;;;;;;;;;;;;;;;25.64;38.74;96869.88;4223934;28;5700;-67
2023/06/17 09:18:17;;;;;;;;;;;;;;;25.64;38.82;96872.59;4219731;28;5726;-67
2023/06/17 09:20:21;;;;;;;;;;;;;;;25.62;38.94;96860.44;4212143;28;5848;-67
2023/06/17 09:22:27;;;;;;;;;;;;;;;25.60;39.02;96860.72;4227123;28;6490;-66
2023/06/17 09:24:30;;;;;;;;;;;;;;;25.61;38.59;96858.81;4215516;28;5699;-66
2023/06/17 09:26:35;;;;;;;;;;;;;;;25.62;38.79;96853.13;4225436;28;5794;-66
2023/06/17 09:28:38;;;;;;;;;;;;;;;25.65;38.44;96851.72;4224414;28;5636;-67
2023/06/17 09:30:43;;;;;;;;;;;;;;;25.63;38.68;96849.31;4227908;28;5693;-65
2023/06/17 09:32:49;;;;;;;;;;;;;;;25.62;38.22;96846.91;4219253;28;5833;-67
2023/06/17 09:34:52;;;;;;;;;;;;;;;25.62;38.65;96841.50;4222897;28;5659;-66
2023/06/17 09:36:59;;;;;;;;;;;;;;;25.64;38.82;96844.72;4216647;28;5930;-66
2023/06/17 09:39:09;;;;;;;;;;;;;;;25.65;38.60;96840.91;4223500;28;5601;-66
2023/06/17 09:41:16;;;;;;;;;;;;;;;25.67;38.25;96844.94;4215252;28;5683;-67
2023/06/17 09:43:19;;;;;;;;;;;;;;;25.70;38.36;96838.97;4224574;28;5597;-68
2023/06/17 09:45:26;;;;;;;;;;;;;;;25.71;38.21;96839.75;4220093;28;5888;-66
2023/06/17 09:47:33;;;;;;;;;;;;;;;25.70;38.49;96841.66;4225864;28;5883;-66
2023/06/17 09:49:43;;;;;;;;;;;;;;;25.71;38.43;96828.94;4223268;28;5832;-65
2023/06/17 09:51:47;;;;;;;;;;;;;;;25.72;38.18;96833.28;4231307;28;5883;-66
2023/06/17 09:53:52;;;;;;;;;;;;;;;25.74;38.05;96823.78;4222440;28;5613;-65
2023/06/17 09:55:58;;;;;;;;;;;;;;;25.76;38.12;96831.59;4218906;28;5609;-66
2023/06/17 09:58:03;;;;;;;;;;;;;;;25.78;37.88;96840.22;4234372;28;5710;-66
2023/06/17 10:00:10;;;;;;;;;;;;;;;25.80;38.00;96825.31;4232318;28;6448;-67
2023/06/17 10:02:13;;;;;;;;;;;;;;;25.82;38.08;96825.84;4232310;28;5593;-66
2023/06/17 10:04:16;;;;;;;;;;;;;;;25.83;38.03;96826.66;4227395;28;5704;-67
2023/06/17 10:06:21;;;;;;;;;;;;;;;25.84;37.97;96825.56;4229369;28;5616;-65
2023/06/17 10:08:25;;;;;;;;;;;;;;;25.82;37.93;96825.84;4226706;28;5616;-67
2023/06/17 10:10:29;;;;;;;;;;;;;;;25.84;37.94;96828.25;4226499;28;5805;-65
2023/06/17 10:12:37;;;;;;;;;;;;;;;25.87;37.65;96816.03;4226995;28;5678;-68
2023/06/17 10:14:40;;;;;;;;;;;;;;;25.88;37.83;96818.44;4227468;28;5681;-66
2023/06/17 10:16:48;;;;;;;;;;;;;;;25.87;37.86;96816.03;4226688;28;5823;-67
2023/06/17 10:18:54;;;;;;;;;;;;;;;25.87;37.43;96821.44;4229818;28;5581;-67
2023/06/17 10:20:59;;;;;;;;;;;;;;;25.84;37.60;96812.00;4226708;28;6369;-67
2023/06/17 10:23:03;;;;;;;;;;;;;;;25.85;37.66;96819.03;4227408;28;5594;-67
2023/06/17 10:25:13;;;;;;;;;;;;;;;25.84;37.58;96806.59;4226423;28;5249;-66
2023/06/17 10:27:19;;;;;;;;;;;;;;;25.86;37.53;96817.13;4230118;28;5092;-67
2023/06/17 10:29:23;;;;;;;;;;;;;;;25.86;37.11;96815.22;4226801;28;5695;-67
2023/06/17 10:31:28;;;;;;;;;;;;;;;25.89;37.37;96805.72;4233075;28;5620;-66
2023/06/17 10:33:32;;;;;;;;;;;;;;;25.89;37.01;96811.13;4234246;28;5092;-67
2023/06/17 10:35:39;;;;;;;;;;;;;;;25.90;36.84;96808.13;4231956;28;5760;-66
2023/06/17 10:37:44;;;;;;;;;;;;;;;25.91;36.78;96801.59;4229583;28;5786;-67
2023/06/17 10:39:52;;;;;;;;;;;;;;;25.94;36.63;96806.47;4226246;28;5821;-67
2023/06/17 10:41:57;;;;;;;;;;;;;;;25.96;36.62;96801.56;4225111;28;5796;-67
2023/06/17 10:44:02;;;;;;;;;;;;;;;25.96;37.02;96798.84;4228987;28;5725;-67
2023/06/17 10:46:06;;;;;;;;;;;;;;;25.97;36.53;96803.16;4229783;28;5633;-66
2023/06/17 10:48:16;;;;;;;;;;;;;;;25.96;36.39;96798.84;4223030;28;7029;-65
2023/06/17 10:50:22;;;;;;;;;;;;;;;25.98;36.46;96787.72;4232534;28;5321;-65
2023/06/17 10:52:30;;;;;;;;;;;;;;;25.99;36.31;96792.03;4225305;28;5593;-65
2023/06/17 10:54:34;;;;;;;;;;;;;;;26.01;36.38;96796.06;4229363;28;5589;-66
2023/06/17 10:56:47;;;;;;;;;;;;;;;26.04;36.37;96789.25;4224672;28;6447;-68
2023/06/17 10:58:49;;;;;;;;;;;;;;;26.05;35.99;96797.09;4226730;28;5601;-65
2023/06/17 11:01:03;;;;;;;;;;;;;;;26.07;36.26;96792.19;4225548;28;6399;-67
2023/06/17 11:03:09;;;;;;;;;;;;;;;26.10;36.19;96794.31;4228234;28;5775;-67
2023/06/17 11:05:12;;;;;;;;;;;;;;;26.13;36.11;96787.50;4209283;28;5938;-66
2023/06/17 11:07:15;;;;;;;;;;;;;;;26.13;36.10;96788.31;4225654;28;5718;-67
2023/06/17 11:09:18;;;;;;;;;;;;;;;26.13;35.79;96782.88;4218317;28;5609;-67
2023/06/17 11:11:21;;;;;;;;;;;;;;;26.17;35.86;96782.31;4233285;28;5828;-67
2023/06/17 11:13:24;;;;;;;;;;;;;;;26.18;35.98;96779.31;4220091;28;5609;-67
2023/06/17 11:15:28;;;;;;;;;;;;;;;26.20;36.05;96781.72;4231963;28;5672;-67
2023/06/17 11:17:31;;;;;;;;;;;;;;;26.21;35.96;96780.63;4222085;28;6479;-67
2023/06/17 11:19:37;;;;;;;;;;;;;;;26.22;36.11;96779.53;4231227;28;6284;-67
2023/06/17 11:21:41;;;;;;;;;;;;;;;26.23;36.01;96781.13;4221461;28;5683;-66
2023/06/17 11:23:44;;;;;;;;;;;;;;;26.24;35.81;96777.31;4234294;28;5692;-67
2023/06/17 11:25:47;;;;;;;;;;;;;;;26.21;35.85;96775.19;4229087;28;5604;-67
2023/06/17 11:27:51;;;;;;;;;;;;;;;26.22;35.79;96774.91;4222766;28;5589;-67
2023/06/17 11:29:54;;;;;;;;;;;;;;;26.23;35.59;96770.28;4227179;28;5703;-67
2023/06/17 11:31:59;;;;;;;;;;;;;;;26.24;35.56;96761.88;4225401;28;5604;-67
2023/06/17 11:34:02;;;;;;;;;;;;;;;26.26;35.81;96764.28;4217501;28;5754;-67
2023/06/17 11:36:09;;;;;;;;;;;;;;;26.28;35.67;96770.22;4231600;28;5621;-67
2023/06/17 11:38:13;;;;;;;;;;;;;;;26.29;35.48;96767.22;4219669;28;5706;-66
2023/06/17 11:40:17;;;;;;;;;;;;;;;26.31;35.44;96772.34;4231534;28;5722;-66
2023/06/17 11:42:20;;;;;;;;;;;;;;;26.32;35.22;96768.53;4217892;28;5608;-66
2023/06/17 11:44:23;;;;;;;;;;;;;;;26.33;35.55;96770.94;4231846;28;6566;-66
2023/06/17 11:46:26;;;;;;;;;;;;;;;26.33;35.45;96768.22;4229019;28;6575;-67
2023/06/17 11:48:30;;;;;;;;;;;;;;;26.36;35.48;96769.53;4232101;28;5586;-67
2023/06/17 11:50:33;;;;;;;;;;;;;;;26.35;35.29;96762.50;4225086;28;5632;-66
2023/06/17 11:52:37;;;;;;;;;;;;;;;26.37;35.01;96760.34;4223768;28;5521;-66
2023/06/17 11:54:45;;;;;;;;;;;;;;;26.37;35.13;96754.91;4216199;28;5600;-66
2023/06/17 11:56:49;;;;;;;;;;;;;;;26.38;35.23;96756.53;4232298;28;5681;-66
2023/06/17 11:58:53;;;;;;;;;;;;;;;26.38;35.50;96756.53;4199965;28;5816;-66
2023/06/17 12:00:59;;;;;;;;;;;;;;;26.37;35.29;96754.91;4227997;28;5867;-67
2023/06/17 12:03:04;;;;;;;;;;;;;;;26.38;35.28;96757.34;4228232;28;5700;-66
2023/06/17 12:05:09;;;;;;;;;;;;;;;26.38;34.98;96751.91;4222732;28;5713;-67
2023/06/17 12:07:12;;;;;;;;;;;;;;;26.39;34.85;96752.75;4223761;28;5747;-67
2023/06/17 12:09:16;;;;;;;;;;;;;;;26.39;35.13;96750.84;4226375;28;5601;-71
2023/06/17 12:11:26;;;;;;;;;;;;;;;26.40;35.16;96755.16;4222205;28;5771;-68
2023/06/17 12:13:38;;;;;;;;;;;;;;;26.41;34.67;96745.13;4224552;28;5628;-68
2023/06/17 12:15:41;;;;;;;;;;;;;;;26.43;34.70;96748.34;4221307;28;5699;-71
2023/06/17 12:17:46;;;;;;;;;;;;;;;26.44;34.77;96743.72;4220103;28;5787;-69
2023/06/17 12:19:49;;;;;;;;;;;;;;;26.44;34.62;96743.72;4222187;28;5625;-68
2023/06/17 12:21:53;;;;;;;;;;;;;;;26.44;34.90;96739.09;4221012;28;5778;-70
2023/06/17 12:23:56;;;;;;;;;;;;;;;26.47;34.65;96737.69;4227187;28;5784;-70
2023/06/17 12:26:01;;;;;;;;;;;;;;;26.45;34.38;96735.28;4205083;28;5826;-71
2023/06/17 12:28:05;;;;;;;;;;;;;;;26.47;34.53;96738.50;4222312;28;5775;-71
2023/06/17 12:30:10;;;;;;;;;;;;;;;26.48;34.22;96740.09;4225545;28;5703;-71
2023/06/17 12:32:13;;;;;;;;;;;;;;;26.50;34.36;96737.91;4221543;28;5912;-71
2023/06/17 12:34:16;;;;;;;;;;;;;;;26.51;34.09;96734.13;4227374;28;5777;-70
2023/06/17 12:36:19;;;;;;;;;;;;;;;26.51;33.99;96728.69;4225939;28;6154;-67
2023/06/17 12:38:28;;;;;;;;;;;;;;;26.53;33.75;96731.09;4223745;28;5787;-70
2023/06/17 12:40:31;;;;;;;;;;;;;;;26.54;33.99;96733.50;4223175;28;5612;-71
2023/06/17 12:42:36;;;;;;;;;;;;;;;26.55;34.19;96729.69;4222026;28;5840;-68
2023/06/17 12:44:39;;;;;;;;;;;;;;;26.55;33.99;96723.47;4223096;28;5869;-71
2023/06/17 12:46:43;;;;;;;;;;;;;;;26.56;33.87;96723.16;4225632;28;5843;-71
2023/06/17 12:48:48;;;;;;;;;;;;;;;26.56;33.70;96725.88;4222845;28;5832;-70
2023/06/17 12:50:52;;;;;;;;;;;;;;;26.53;33.98;96718.34;4226854;28;5720;-70
2023/06/17 12:52:55;;;;;;;;;;;;;;;26.57;33.85;96716.66;4228106;28;5696;-73
2023/06/17 12:54:59;;;;;;;;;;;;;;;26.59;33.49;96708.22;4223982;28;5631;-69
2023/06/17 12:57:02;;;;;;;;;;;;;;;26.60;33.76;96709.81;4222340;28;5609;-72
2023/06/17 12:59:07;;;;;;;;;;;;;;;26.62;33.53;96713.06;4222884;28;5699;-71
2023/06/17 13:01:10;;;;;;;;;;;;;;;26.61;33.77;96701.38;4230587;28;5778;-68
2023/06/17 13:03:13;;;;;;;;;;;;;;;26.63;33.28;96709.25;4223988;28;5687;-69
2023/06/17 13:05:18;;;;;;;;;;;;;;;26.64;33.52;96705.44;4215875;28;5608;-70
2023/06/17 13:07:22;;;;;;;;;;;;;;;26.64;33.39;96694.59;4224501;28;5719;-71
2023/06/17 13:09:25;;;;;;;;;;;;;;;26.64;33.26;96700.00;4225150;28;5644;-69
2023/06/17 13:11:28;;;;;;;;;;;;;;;26.65;33.31;96694.28;4224937;28;5609;-70
2023/06/17 13:13:33;;;;;;;;;;;;;;;26.66;33.53;96695.88;4225859;28;5775;-69
2023/06/17 13:15:37;;;;;;;;;;;;;;;26.68;33.50;96690.16;4226254;28;5613;-71
2023/06/17 13:17:41;;;;;;;;;;;;;;;26.67;33.22;96694.78;4224640;28;5612;-69
2023/06/17 13:19:44;;;;;;;;;;;;;;;26.67;32.99;96693.97;4224528;28;5959;-69
2023/06/17 13:21:47;;;;;;;;;;;;;;;26.69;33.09;96689.84;4223609;28;5598;-70
2023/06/17 13:23:50;;;;;;;;;;;;;;;26.69;33.08;96686.34;4227582;28;7718;-70
2023/06/17 13:25:53;;;;;;;;;;;;;;;26.72;32.79;96685.75;4226045;28;5687;-70
2023/06/17 13:27:57;;;;;;;;;;;;;;;26.72;32.97;96687.66;4226222;28;5628;-68
2023/06/17 13:30:00;;;;;;;;;;;;;;;26.73;32.78;96686.53;4227277;28;5676;-70
2023/06/17 13:32:04;;;;;;;;;;;;;;;26.72;32.76;96685.75;4226708;28;5732;-67
2023/06/17 13:34:07;;;;;;;;;;;;;;;26.74;32.57;96688.19;4226430;28;5767;-73
2023/06/17 13:36:11;;;;;;;;;;;;;;;26.73;32.80;96683.81;4225217;28;5786;-68
2023/06/17 13:38:14;;;;;;;;;;;;;;;26.74;32.40;96677.31;4221789;28;5855;-67
2023/06/17 13:40:17;;;;;;;;;;;;;;;26.74;32.66;96677.31;4233294;28;6552;-69
2023/06/17 13:42:21;;;;;;;;;;;;;;;26.73;32.31;96678.41;4230484;28;5868;-70
2023/06/17 13:44:24;;;;;;;;;;;;;;;26.74;32.49;96675.41;4230465;28;5700;-71
2023/06/17 13:46:27;;;;;;;;;;;;;;;26.75;32.60;96674.31;4228102;28;5597;-71
2023/06/17 13:48:31;;;;;;;;;;;;;;;26.77;32.59;96674.00;4223849;28;5589;-70
2023/06/17 13:50:35;;;;;;;;;;;;;;;26.77;32.48;96671.31;4224340;27;5610;-70
2023/06/17 13:52:39;;;;;;;;;;;;;;;26.79;32.42;96671.78;4225354;28;5593;-69
2023/06/17 13:54:42;;;;;;;;;;;;;;;26.80;32.15;96667.97;4216214;27;5728;-68
2023/06/17 13:56:46;;;;;;;;;;;;;;;26.80;32.32;96666.06;4222052;27;5664;-70
2023/06/17 13:58:48;;;;;;;;;;;;;;;26.82;32.42;96669.28;4224649;28;5950;-85
2023/06/17 14:00:52;;;;;;;;;;;;;;;26.83;32.27;96659.22;4223631;28;5582;-82
2023/06/17 14:02:55;;;;;;;;;;;;;;;26.82;32.68;96663.06;4230029;27;5683;-87
2023/06/17 14:05:00;;;;;;;;;;;;;;;26.82;32.41;96663.06;4229687;28;5635;-82
2023/06/17 14:07:03;;;;;;;;;;;;;;;26.82;32.69;96660.34;4228372;28;5763;-84
2023/06/17 14:09:07;;;;;;;;;;;;;;;26.81;32.50;96661.44;4223931;28;5816;-76
2023/06/17 14:11:11;;;;;;;;;;;;;;;26.81;32.72;96656.03;4222161;28;5752;-73
2023/06/17 14:13:14;;;;;;;;;;;;;;;26.82;32.56;96657.63;4227190;28;5706;-69
2023/06/17 14:15:17;;;;;;;;;;;;;;;26.83;32.74;96659.22;4222276;28;5604;-69
2023/06/17 14:17:20;;;;;;;;;;;;;;;26.83;32.55;96653.81;4228593;28;5760;-69
2023/06/17 14:19:23;;;;;;;;;;;;;;;26.83;32.52;96656.53;4227700;28;5700;-70
2023/06/17 14:21:30;;;;;;;;;;;;;;;26.82;32.81;96658.44;4225005;28;5906;-70
2023/06/17 14:23:33;;;;;;;;;;;;;;;26.82;32.49;96652.22;4225568;28;5617;-70
2023/06/17 14:25:36;;;;;;;;;;;;;;;26.81;32.55;96654.13;4225004;28;5916;-69
2023/06/17 14:27:39;;;;;;;;;;;;;;;26.80;32.55;96655.22;4229777;28;5581;-69
2023/06/17 14:29:42;;;;;;;;;;;;;;;26.81;32.57;96653.31;4227970;28;5696;-69
2023/06/17 14:31:45;;;;;;;;;;;;;;;26.81;32.88;96656.81;4224862;28;5621;-70
2023/06/17 14:33:48;;;;;;;;;;;;;;;26.81;32.74;96653.31;4220489;28;5714;-70
2023/06/17 14:35:51;;;;;;;;;;;;;;;26.82;32.74;96652.22;4225187;28;5624;-70
2023/06/17 14:37:55;;;;;;;;;;;;;;;26.81;32.42;96653.31;4226189;28;6416;-69
2023/06/17 14:39:58;;;;;;;;;;;;;;;26.80;32.77;96649.81;4223148;28;5806;-70
2023/06/17 14:42:01;;;;;;;;;;;;;;;26.81;32.67;96656.81;4221511;27;5722;-70
2023/06/17 14:44:04;;;;;;;;;;;;;;;26.82;32.72;96652.22;4223789;28;5815;-70
2023/06/17 14:46:07;;;;;;;;;;;;;;;26.82;32.46;96649.50;4223841;28;5680;-69
2023/06/17 14:48:10;;;;;;;;;;;;;;;26.81;32.35;96643.28;4222247;28;5799;-69
2023/06/17 14:50:13;;;;;;;;;;;;;;;26.82;32.73;96647.59;4225317;28;5593;-70
2023/06/17 14:52:16;;;;;;;;;;;;;;;26.81;32.54;96648.69;4229394;28;5594;-70
2023/06/17 14:54:20;;;;;;;;;;;;;;;26.84;32.50;96639.16;4226300;28;5616;-69
2023/06/17 14:56:27;;;;;;;;;;;;;;;26.84;32.62;96647.28;4229614;28;6553;-69
2023/06/17 14:58:30;;;;;;;;;;;;;;;26.84;32.35;96639.16;4225980;28;5112;-69
2023/06/17 15:00:33;;;;;;;;;;;;;;;26.84;32.21;96639.97;4223007;28;6094;-69
2023/06/17 15:02:47;;;;;;;;;;;;;;;26.84;32.35;96639.16;4220029;28;5549;-69
2023/06/17 15:04:50;;;;;;;;;;;;;;;26.86;32.13;96628.81;4228574;28;6077;-69
2023/06/17 15:06:53;;;;;;;;;;;;;;;26.85;32.46;96629.94;4228295;28;5608;-69
2023/06/17 15:09:25;;;;;;;;;;;;;;;26.84;32.15;96639.97;4223655;28;5656;-69
2023/06/17 15:11:28;;;;;;;;;;;;;;;26.86;32.31;96631.53;4215440;28;5789;-69
2023/06/17 15:13:31;;;;;;;;;;;;;;;26.86;32.03;96626.09;4224696;28;5784;-69
2023/06/17 15:15:34;;;;;;;;;;;;;;;26.87;31.99;96625.00;4231000;28;5667;-69
2023/06/17 15:17:37;;;;;;;;;;;;;;;26.85;32.00;96625.31;4223620;28;5191;-69
2023/06/17 15:19:41;;;;;;;;;;;;;;;26.86;32.24;96628.81;4225776;28;5719;-69
2023/06/17 15:21:45;;;;;;;;;;;;;;;26.86;31.89;96623.41;4223668;28;5894;-69
2023/06/17 15:23:48;;;;;;;;;;;;;;;26.87;31.91;96620.38;4231991;28;6199;-69
2023/06/17 15:25:52;;;;;;;;;;;;;;;26.87;31.84;96623.09;4233352;28;5608;-69
2023/06/17 15:27:55;;;;;;;;;;;;;;;26.87;31.82;96623.09;4231336;28;5751;-69
2023/06/17 15:29:58;;;;;;;;;;;;;;;26.87;31.75;96620.38;4225939;28;5820;-69
2023/06/17 15:32:00;;;;;;;;;;;;;;;26.87;31.67;96616.88;4225938;28;5594;-69
2023/06/17 15:34:03;;;;;;;;;;;;;;;26.87;31.83;96623.09;4222065;28;7671;-69
2023/06/17 15:36:06;;;;;;;;;;;;;;;26.87;31.57;96625.81;4222451;28;5615;-69
2023/06/17 15:38:09;;;;;;;;;;;;;;;26.88;31.67;96627.41;4230714;28;5589;-71
2023/06/17 15:40:13;;;;;;;;;;;;;;;26.88;31.88;96627.41;4231148;28;5745;-70
2023/06/17 15:42:17;;;;;;;;;;;;;;;26.89;31.66;96629.00;4227308;28;5684;-71
2023/06/17 15:44:21;;;;;;;;;;;;;;;26.91;31.86;96628.72;4225478;28;6564;-73
2023/06/17 15:46:24;;;;;;;;;;;;;;;26.91;31.60;96631.41;4224169;28;5624;-74
2023/06/17 15:48:28;;;;;;;;;;;;;;;26.92;31.94;96633.03;4225310;28;5700;-73
2023/06/17 15:50:31;;;;;;;;;;;;;;;26.93;31.73;96631.91;4230571;28;5732;-73
2023/06/17 15:52:34;;;;;;;;;;;;;;;26.92;31.91;96624.88;4210490;28;5841;-75
2023/06/17 15:54:37;;;;;;;;;;;;;;;26.94;32.09;96619.97;4226198;28;5701;-74
2023/06/17 15:56:45;;;;;;;;;;;;;;;26.94;32.00;96620.75;4229906;28;5762;-74
2023/06/17 15:58:50;;;;;;;;;;;;;;;26.96;31.82;96625.91;4226906;28;5782;-77
2023/06/17 16:00:53;;;;;;;;;;;;;;;26.95;31.84;96625.06;4225259;28;5736;-76
2023/06/17 16:02:55;;;;;;;;;;;;;;;26.97;32.06;96611.25;4231076;28;6350;-74
2023/06/17 16:04:58;;;;;;;;;;;;;;;26.98;31.87;96618.25;4225044;28;5624;-81
2023/06/17 16:07:03;;;;;;;;;;;;;;;26.98;31.81;96619.06;4225265;28;5835;-86
2023/06/17 16:09:05;;;;;;;;;;;;;;;26.98;32.07;96612.84;4226393;28;6504;-78